createdAt,value
2022-08-21T00:01:45.522Z,55.48
2022-08-21T00:04:14.484Z,54.60
2022-08-21T00:06:50.670Z,63.09
2022-08-21T00:09:20.214Z,58.52
2022-08-21T00:11:48.724Z,58.29
2022-08-21T00:14:17.567Z,53.59
2022-08-21T00:16:45.690Z,53.35
2022-08-21T00:19:13.540Z,54.76
2022-08-21T00:21:41.468Z,53.06
2022-08-21T00:24:12.954Z,52.69
2022-08-21T00:26:40.827Z,52.40
2022-08-21T00:29:08.935Z,52.49
2022-08-21T00:31:37.212Z,52.78
2022-08-21T00:34:05.051Z,52.29
2022-08-21T00:36:32.816Z,54.34
2022-08-21T00:39:01.080Z,52.91
2022-08-21T00:41:37.457Z,52.92
2022-08-21T00:44:08.666Z,53.01
2022-08-21T00:46:37.382Z,52.84
2022-08-21T00:49:06.954Z,52.57
2022-08-21T00:51:51.391Z,52.49
2022-08-21T00:54:20.570Z,52.52
2022-08-21T00:56:54.375Z,52.62
2022-08-21T00:59:24.443Z,53.16
2022-08-21T01:01:53.211Z,53.16
2022-08-21T01:04:21.289Z,53.50
2022-08-21T01:06:49.029Z,53.27
2022-08-21T01:09:17.378Z,54.47
2022-08-21T01:11:45.394Z,57.99
2022-08-21T01:14:13.834Z,56.38
2022-08-21T01:16:45.312Z,53.82
2022-08-21T01:19:13.586Z,54.32
2022-08-21T01:21:41.284Z,53.39
2022-08-21T01:24:09.399Z,58.84
2022-08-21T01:26:37.624Z,59.43
2022-08-21T01:29:18.169Z,54.42
2022-08-21T01:31:46.863Z,53.75
2022-08-21T01:34:16.925Z,55.37
2022-08-21T01:36:45.999Z,54.07
2022-08-21T01:39:13.952Z,54.31
2022-08-21T01:41:41.860Z,54.28
2022-08-21T01:44:10.711Z,53.70
2022-08-21T01:46:38.604Z,53.68
2022-08-21T01:49:06.695Z,52.98
2022-08-21T01:51:34.506Z,53.44
2022-08-21T01:54:02.251Z,53.53
2022-08-21T01:56:30.014Z,53.26
2022-08-21T01:58:57.766Z,54.02
2022-08-21T02:01:25.941Z,53.92
2022-08-21T02:03:53.645Z,54.20
2022-08-21T02:06:21.782Z,54.35
2022-08-21T02:08:51.424Z,54.13
2022-08-21T02:11:19.897Z,54.81
2022-08-21T02:13:49.530Z,53.99
2022-08-21T02:16:19.437Z,54.71
2022-08-21T02:18:47.954Z,53.97
2022-08-21T02:21:16.261Z,53.34
2022-08-21T02:23:44.647Z,54.97
2022-08-21T02:26:13.048Z,54.63
2022-08-21T02:28:41.863Z,53.96
2022-08-21T02:31:10.381Z,60.61
2022-08-21T02:33:38.165Z,60.11
2022-08-21T02:36:06.596Z,65.56
2022-08-21T02:38:39.092Z,65.83
2022-08-21T02:41:12.262Z,58.71
2022-08-21T02:43:40.556Z,56.52
2022-08-21T02:46:10.173Z,59.22
2022-08-21T02:48:38.882Z,64.80
2022-08-21T02:51:15.719Z,64.42
2022-08-21T02:53:44.915Z,58.87
2022-08-21T02:56:14.673Z,64.27
2022-08-21T02:58:50.079Z,60.95
2022-08-21T03:01:19.123Z,57.79
2022-08-21T03:03:50.658Z,57.77
2022-08-21T03:06:20.008Z,56.16
2022-08-21T03:08:47.692Z,56.52
2022-08-21T03:11:15.899Z,57.62
2022-08-21T03:13:44.314Z,56.45
2022-08-21T03:16:13.339Z,64.89
2022-08-21T03:18:41.402Z,56.70
2022-08-21T03:21:09.393Z,55.88
2022-08-21T03:23:40.583Z,55.59
2022-08-21T03:26:08.867Z,62.60
2022-08-21T03:28:36.852Z,65.19
2022-08-21T03:31:06.559Z,59.74
2022-08-21T03:33:34.642Z,61.34
2022-08-21T03:36:07.106Z,67.11
2022-08-21T03:38:35.929Z,64.40
2022-08-21T03:43:33.426Z,61.13
2022-08-21T03:46:03.146Z,57.45
2022-08-21T03:48:31.624Z,67.71
2022-08-21T03:50:59.841Z,58.77
2022-08-21T03:53:28.001Z,58.41
2022-08-21T03:55:57.049Z,64.93
2022-08-21T03:58:27.025Z,57.86
2022-08-21T04:00:57.953Z,59.60
2022-08-21T04:03:27.634Z,57.00
2022-08-21T04:05:55.459Z,55.46
2022-08-21T04:08:25.005Z,60.07
2022-08-21T04:10:54.909Z,57.45
2022-08-21T04:13:22.709Z,60.38
2022-08-21T04:15:50.628Z,57.49
2022-08-21T04:18:18.982Z,57.36
2022-08-21T04:20:50.131Z,55.19
2022-08-21T04:23:23.972Z,57.96
2022-08-21T04:25:53.696Z,58.33
2022-08-21T04:28:28.881Z,55.05
2022-08-21T04:30:57.439Z,54.59
2022-08-21T04:33:25.355Z,54.91
2022-08-21T04:35:53.631Z,56.03
2022-08-21T04:38:21.739Z,54.57
2022-08-21T04:40:50.603Z,54.64
2022-08-21T04:43:19.151Z,55.45
2022-08-21T04:45:48.819Z,55.80
2022-08-21T04:48:19.289Z,55.57
2022-08-21T04:51:08.299Z,55.61
2022-08-21T04:53:53.913Z,54.88
2022-08-21T04:56:26.824Z,56.78
2022-08-21T04:58:57.091Z,55.39
2022-08-21T05:01:27.782Z,59.73
2022-08-21T05:03:57.469Z,60.26
2022-08-21T05:06:25.585Z,57.38
2022-08-21T05:09:01.541Z,57.41
2022-08-21T05:11:31.973Z,56.76
2022-08-21T05:14:00.440Z,56.56
2022-08-21T05:16:36.548Z,56.02
2022-08-21T05:19:06.642Z,55.62
2022-08-21T05:21:36.217Z,54.88
2022-08-21T05:24:04.463Z,54.76
2022-08-21T05:26:32.638Z,54.25
2022-08-21T05:29:00.735Z,56.61
2022-08-21T05:31:30.167Z,56.13
2022-08-21T05:33:57.808Z,55.66
2022-08-21T05:36:26.006Z,55.57
2022-08-21T05:38:54.098Z,55.37
2022-08-21T05:41:22.629Z,59.03
2022-08-21T05:43:50.364Z,60.11
2022-08-21T05:46:18.188Z,59.77
2022-08-21T05:48:46.383Z,67.06
2022-08-21T05:51:16.298Z,61.69
2022-08-21T05:53:45.227Z,61.57
2022-08-21T05:56:13.684Z,65.18
2022-08-21T05:58:41.876Z,65.41
2022-08-21T06:01:10.204Z,65.97
2022-08-21T06:03:41.072Z,68.05
2022-08-21T06:06:09.417Z,69.94
2022-08-21T06:08:37.780Z,65.35
2022-08-21T06:11:06.950Z,66.44
2022-08-21T06:13:35.016Z,64.77
2022-08-21T06:16:08.605Z,66.07
2022-08-21T06:18:37.253Z,66.34
2022-08-21T06:21:05.791Z,66.54
2022-08-21T06:23:34.953Z,65.83
2022-08-21T06:26:03.572Z,66.12
2022-08-21T06:28:32.023Z,65.47
2022-08-21T06:31:00.414Z,67.31
2022-08-21T06:33:32.471Z,65.44
2022-08-21T06:36:01.036Z,65.73
2022-08-21T06:38:28.808Z,66.74
2022-08-21T06:40:57.087Z,67.55
2022-08-21T06:43:37.836Z,68.25
2022-08-21T06:46:08.788Z,68.07
2022-08-21T06:48:37.256Z,67.85
2022-08-21T06:51:05.529Z,70.02
2022-08-21T06:53:33.633Z,68.49
2022-08-21T06:56:02.023Z,67.51
2022-08-21T06:58:32.091Z,66.83
2022-08-21T07:01:01.207Z,66.09
2022-08-21T07:03:41.746Z,65.48
2022-08-21T07:06:11.505Z,65.13
2022-08-21T07:08:39.823Z,64.37
2022-08-21T07:11:22.900Z,63.89
2022-08-21T07:13:53.662Z,62.52
2022-08-21T07:16:22.286Z,61.66
2022-08-21T07:18:50.551Z,59.72
2022-08-21T07:21:20.734Z,58.61
2022-08-21T07:23:52.404Z,58.86
2022-08-21T07:26:24.295Z,57.44
2022-08-21T07:28:52.738Z,56.26
2022-08-21T07:31:22.292Z,56.43
2022-08-21T07:33:50.359Z,54.43
2022-08-21T07:36:18.508Z,55.07
2022-08-21T07:38:46.573Z,54.65
2022-08-21T07:41:24.299Z,54.28
2022-08-21T07:43:52.730Z,52.86
2022-08-21T07:46:20.966Z,52.14
2022-08-21T07:48:48.803Z,51.84
2022-08-21T07:51:20.185Z,51.84
2022-08-21T07:53:53.989Z,52.33
2022-08-21T07:56:22.563Z,52.14
2022-08-21T07:58:51.766Z,51.80
2022-08-21T08:01:21.407Z,51.87
2022-08-21T08:03:49.523Z,51.45
2022-08-21T08:06:20.082Z,51.22
2022-08-21T08:08:49.199Z,51.36
2022-08-21T08:11:17.239Z,51.66
2022-08-21T08:13:47.727Z,51.66
2022-08-21T08:16:16.344Z,49.96
2022-08-21T08:18:45.595Z,49.66
2022-08-21T08:21:13.960Z,49.66
2022-08-21T08:23:42.099Z,49.49
2022-08-21T08:26:16.461Z,49.08
2022-08-21T08:28:49.172Z,49.10
2022-08-21T08:31:17.544Z,48.71
2022-08-21T08:33:46.598Z,48.68
2022-08-21T08:36:20.438Z,48.66
2022-08-21T08:38:48.898Z,48.34
2022-08-21T08:41:20.670Z,48.02
2022-08-21T08:44:05.141Z,47.79
2022-08-21T08:46:39.578Z,47.54
2022-08-21T08:49:15.117Z,46.91
2022-08-21T08:52:01.647Z,47.09
2022-08-21T08:54:35.098Z,46.77
2022-08-21T08:57:28.349Z,47.40
2022-08-21T08:59:58.759Z,46.54
2022-08-21T09:02:30.817Z,46.69
2022-08-21T09:05:00.430Z,46.57
2022-08-21T09:07:47.390Z,46.58
2022-08-21T09:10:30.124Z,46.10
2022-08-21T09:13:18.431Z,46.25
2022-08-21T09:16:10.367Z,46.10
2022-08-21T09:19:24.960Z,45.94
2022-08-21T09:22:21.051Z,46.01
2022-08-21T09:25:27.650Z,46.23
2022-08-21T09:27:56.389Z,45.94
2022-08-21T09:30:33.322Z,45.77
2022-08-21T09:33:14.697Z,45.98
2022-08-21T09:36:07.354Z,46.16
2022-08-21T09:38:38.137Z,46.29
2022-08-21T09:41:11.251Z,45.70
2022-08-21T09:43:54.898Z,45.35
2022-08-21T09:46:27.077Z,45.47
2022-08-21T09:49:02.306Z,46.34
2022-08-21T09:51:32.947Z,45.54
2022-08-21T09:54:06.999Z,46.08
2022-08-21T09:56:54.868Z,45.55
2022-08-21T09:59:36.455Z,45.40
2022-08-21T10:02:32.133Z,43.86
2022-08-21T10:05:23.713Z,42.53
2022-08-21T10:07:53.171Z,41.26
2022-08-21T10:10:30.925Z,39.76
2022-08-21T10:13:55.087Z,37.86
2022-08-21T10:16:29.591Z,37.38
2022-08-21T10:19:06.814Z,36.91
2022-08-21T10:22:17.943Z,37.43
2022-08-21T10:25:02.553Z,36.26
2022-08-21T10:27:48.568Z,37.26
2022-08-21T10:30:40.191Z,37.61
2022-08-21T10:33:38.985Z,36.77
2022-08-21T10:36:21.262Z,35.14
2022-08-21T10:39:35.609Z,34.35
2022-08-21T10:42:04.462Z,34.81
2022-08-21T10:44:50.241Z,34.82
2022-08-21T10:47:31.438Z,33.92
2022-08-21T10:50:26.239Z,34.06
2022-08-21T10:53:37.745Z,34.79
2022-08-21T10:56:13.799Z,100.00
2022-08-21T10:59:33.312Z,100.00
2022-08-21T11:02:27.917Z,34.09
2022-08-21T11:05:09.471Z,35.10
2022-08-21T11:07:54.680Z,33.86
2022-08-21T11:10:40.852Z,32.96
2022-08-21T11:13:52.193Z,32.56
2022-08-21T11:16:47.245Z,30.85
2022-08-21T11:19:48.549Z,30.75
2022-08-21T11:22:35.956Z,100.00
2022-08-21T11:25:22.867Z,100.00
2022-08-21T11:28:16.882Z,30.69
2022-08-21T11:31:28.030Z,31.80
2022-08-21T11:34:11.404Z,100.00
2022-08-21T11:37:14.092Z,100.00
2022-08-21T11:39:51.995Z,100.00
2022-08-21T11:42:52.548Z,100.00
2022-08-21T11:45:29.580Z,100.00
2022-08-21T11:48:17.329Z,100.00
2022-08-21T11:50:46.114Z,100.00
2022-08-21T11:53:19.322Z,100.00
2022-08-21T11:56:54.027Z,100.00
2022-08-21T11:59:25.260Z,27.20
2022-08-21T12:01:57.322Z,100.00
2022-08-21T12:05:11.581Z,100.00
2022-08-21T12:07:42.022Z,25.10
2022-08-21T12:10:21.963Z,25.95
2022-08-21T12:12:49.716Z,26.09
2022-08-21T12:15:20.456Z,25.25
2022-08-21T12:18:03.024Z,24.61
2022-08-21T12:21:00.721Z,25.05
2022-08-21T12:23:46.740Z,24.58
2022-08-21T12:26:22.687Z,24.44
2022-08-21T12:28:50.676Z,24.03
2022-08-21T12:31:22.380Z,23.25
2022-08-21T12:33:53.672Z,23.06
2022-08-21T12:36:26.564Z,23.39
2022-08-21T12:39:07.522Z,22.99
2022-08-21T12:42:07.826Z,23.62
2022-08-21T12:44:42.120Z,23.45
2022-08-21T12:47:28.961Z,23.25
2022-08-21T12:50:02.884Z,22.31
2022-08-21T12:52:41.686Z,22.18
2022-08-21T12:55:16.765Z,21.60
2022-08-21T12:57:44.591Z,22.82
2022-08-21T13:00:16.830Z,22.48
2022-08-21T13:02:48.691Z,21.72
2022-08-21T13:05:24.840Z,22.28
2022-08-21T13:07:52.655Z,21.93
2022-08-21T13:10:26.108Z,21.91
2022-08-21T13:13:12.619Z,21.62
2022-08-21T13:15:49.198Z,21.98
2022-08-21T13:18:28.497Z,20.73
2022-08-21T13:21:16.092Z,21.18
2022-08-21T13:23:45.071Z,20.32
2022-08-21T13:26:22.755Z,20.52
2022-08-21T13:28:51.352Z,20.25
2022-08-21T13:31:29.319Z,21.19
2022-08-21T13:34:00.748Z,20.39
2022-08-21T13:36:37.590Z,20.76
2022-08-21T13:39:08.072Z,20.37
2022-08-21T13:41:40.191Z,20.57
2022-08-21T13:44:27.394Z,19.83
2022-08-21T13:46:55.311Z,20.11
2022-08-21T13:49:41.018Z,21.64
2022-08-21T13:52:25.762Z,21.12
2022-08-21T13:55:13.227Z,20.04
2022-08-21T13:57:41.087Z,21.16
2022-08-21T14:00:21.226Z,22.24
2022-08-21T14:02:52.586Z,21.03
2022-08-21T14:05:26.367Z,22.09
2022-08-21T14:08:09.676Z,22.08
2022-08-21T14:10:44.915Z,21.48
2022-08-21T14:13:45.997Z,21.79
2022-08-21T14:16:47.261Z,21.75
2022-08-21T14:19:24.427Z,22.79
2022-08-21T14:21:52.719Z,22.60
2022-08-21T14:24:23.829Z,22.79
2022-08-21T14:27:04.565Z,22.22
2022-08-21T14:29:42.097Z,22.48
2022-08-21T14:32:21.648Z,21.57
2022-08-21T14:34:54.921Z,20.86
2022-08-21T14:37:24.004Z,22.90
2022-08-21T14:39:52.245Z,22.81
2022-08-21T14:42:20.519Z,23.05
2022-08-21T14:44:48.324Z,22.53
2022-08-21T14:47:16.451Z,22.85
2022-08-21T14:49:44.350Z,23.15
2022-08-21T14:52:14.492Z,23.64
2022-08-21T14:54:44.237Z,23.46
2022-08-21T14:57:13.384Z,23.34
2022-08-21T14:59:41.324Z,23.69
2022-08-21T15:02:09.641Z,23.87
2022-08-21T15:04:44.685Z,23.57
2022-08-21T15:07:13.475Z,23.47
2022-08-21T15:09:41.289Z,22.81
2022-08-21T15:12:09.095Z,22.90
2022-08-21T15:14:41.284Z,22.96
2022-08-21T15:17:11.118Z,23.73
2022-08-21T15:19:39.391Z,23.07
2022-08-21T15:22:15.612Z,23.56
2022-08-21T15:24:47.017Z,24.11
2022-08-21T15:27:16.692Z,23.36
2022-08-21T15:29:44.610Z,23.82
2022-08-21T15:32:28.735Z,23.94
2022-08-21T15:34:58.307Z,24.76
2022-08-21T15:37:26.916Z,25.25
2022-08-21T15:39:55.134Z,25.55
2022-08-21T15:42:24.438Z,25.67
2022-08-21T15:44:52.821Z,26.10
2022-08-21T15:47:25.468Z,26.37
2022-08-21T15:49:53.293Z,26.09
2022-08-21T15:52:24.039Z,24.92
2022-08-21T15:54:52.795Z,24.27
2022-08-21T15:57:24.145Z,25.10
2022-08-21T15:59:56.315Z,25.10
2022-08-21T16:02:28.608Z,24.45
2022-08-21T16:04:56.825Z,24.21
2022-08-21T16:07:24.763Z,24.48
2022-08-21T16:09:52.620Z,24.46
2022-08-21T16:12:33.597Z,24.28
2022-08-21T16:15:04.678Z,23.46
2022-08-21T16:17:35.359Z,24.04
2022-08-21T16:20:06.541Z,24.38
2022-08-21T16:22:36.366Z,24.43
2022-08-21T16:25:15.368Z,24.88
2022-08-21T16:27:50.181Z,24.87
2022-08-21T16:30:19.917Z,25.14
2022-08-21T16:32:48.390Z,25.71
2022-08-21T16:35:18.623Z,26.10
2022-08-21T16:37:51.179Z,26.46
2022-08-21T16:40:27.125Z,26.45
2022-08-21T16:42:55.540Z,26.43
2022-08-21T16:45:23.488Z,26.84
2022-08-21T16:47:51.697Z,27.01
2022-08-21T16:50:23.825Z,26.86
2022-08-21T16:52:52.644Z,26.26
2022-08-21T16:55:20.388Z,25.53
2022-08-21T16:57:48.176Z,25.08
2022-08-21T17:00:16.298Z,25.24
2022-08-21T17:02:49.925Z,25.19
2022-08-21T17:05:17.818Z,25.19
2022-08-21T17:07:45.974Z,24.00
2022-08-21T17:10:15.575Z,24.63
2022-08-21T17:12:44.479Z,24.33
2022-08-21T17:15:33.346Z,26.23
2022-08-21T17:18:02.067Z,25.77
2022-08-21T17:20:30.320Z,26.61
2022-08-21T17:22:58.240Z,26.07
2022-08-21T17:25:27.010Z,26.88
2022-08-21T17:27:55.232Z,27.57
2022-08-21T17:30:26.101Z,28.00
2022-08-21T17:32:55.089Z,28.14
2022-08-21T17:35:27.297Z,28.40
2022-08-21T17:37:55.112Z,26.52
2022-08-21T17:40:24.786Z,27.46
2022-08-21T17:43:00.997Z,28.10
2022-08-21T17:45:29.048Z,29.51
2022-08-21T17:47:57.379Z,29.73
2022-08-21T17:50:27.221Z,29.92
2022-08-21T17:52:55.092Z,30.60
2022-08-21T17:55:23.310Z,30.33
2022-08-21T17:57:53.111Z,31.60
2022-08-21T18:00:22.876Z,31.72
2022-08-21T18:03:08.872Z,32.90
2022-08-21T18:05:36.519Z,31.60
2022-08-21T18:08:05.330Z,31.67
2022-08-21T18:10:33.465Z,32.16
2022-08-21T18:13:06.035Z,32.63
2022-08-21T18:15:36.370Z,31.28
2022-08-21T18:18:05.057Z,31.79
2022-08-21T18:20:38.099Z,31.97
2022-08-21T18:23:09.130Z,32.43
2022-08-21T18:25:37.867Z,33.16
2022-08-21T18:28:06.674Z,31.72
2022-08-21T18:30:38.421Z,31.92
2022-08-21T18:33:07.123Z,32.11
2022-08-21T18:35:35.305Z,31.97
2022-08-21T18:38:03.850Z,33.54
2022-08-21T18:40:33.172Z,34.37
2022-08-21T18:43:04.019Z,32.99
2022-08-21T18:45:32.277Z,33.48
2022-08-21T18:48:03.461Z,32.53
2022-08-21T18:50:31.488Z,37.61
2022-08-21T18:52:59.628Z,35.66
2022-08-21T18:55:29.524Z,33.85
2022-08-21T18:57:58.362Z,39.74
2022-08-21T19:00:33.064Z,35.55
2022-08-21T19:03:01.704Z,37.88
2022-08-21T19:05:50.062Z,34.38
2022-08-21T19:08:19.692Z,35.16
2022-08-21T19:10:49.021Z,37.10
2022-08-21T19:13:19.870Z,36.34
2022-08-21T19:15:52.904Z,36.72
2022-08-21T19:18:28.297Z,35.23
2022-08-21T19:20:57.477Z,35.02
2022-08-21T19:23:29.382Z,34.97
2022-08-21T19:26:01.658Z,34.72
2022-08-21T19:28:49.881Z,35.58
2022-08-21T19:31:24.021Z,35.93
2022-08-21T19:34:01.589Z,36.00
2022-08-21T19:36:31.514Z,35.39
2022-08-21T19:39:00.364Z,35.65
2022-08-21T19:41:32.716Z,36.25
2022-08-21T19:44:05.741Z,35.71
2022-08-21T19:46:35.753Z,36.15
2022-08-21T19:49:06.795Z,37.21
2022-08-21T19:51:35.356Z,41.78
2022-08-21T19:54:03.677Z,39.37
2022-08-21T19:56:32.954Z,39.67
2022-08-21T19:59:07.211Z,41.92
2022-08-21T20:01:40.038Z,40.00
2022-08-21T20:04:10.673Z,39.19
2022-08-21T20:06:45.223Z,39.19
2022-08-21T20:09:13.259Z,38.17
2022-08-21T20:11:48.898Z,38.54
2022-08-21T20:14:19.193Z,37.33
2022-08-21T20:16:52.460Z,37.15
2022-08-21T20:19:21.896Z,37.81
2022-08-21T20:21:49.969Z,37.43
2022-08-21T20:24:18.010Z,38.43
2022-08-21T20:26:48.645Z,38.77
2022-08-21T20:29:24.579Z,39.47
2022-08-21T20:32:04.680Z,39.02
2022-08-21T20:34:33.253Z,38.33
2022-08-21T20:37:02.043Z,37.84
2022-08-21T20:39:33.156Z,37.96
2022-08-21T20:42:01.313Z,38.51
2022-08-21T20:44:31.341Z,38.57
2022-08-21T20:46:59.983Z,39.46
2022-08-21T20:49:44.253Z,39.55
2022-08-21T20:52:13.535Z,38.38
2022-08-21T20:54:46.036Z,37.81
2022-08-21T20:57:41.970Z,38.27
2022-08-21T21:00:14.883Z,45.15
2022-08-21T21:03:04.314Z,40.77
2022-08-21T21:06:25.392Z,43.94
2022-08-21T21:08:58.538Z,41.68
2022-08-21T21:11:34.736Z,39.53
2022-08-21T21:14:17.537Z,41.12
2022-08-21T21:17:03.341Z,41.00
2022-08-21T21:19:51.979Z,42.74
2022-08-21T21:22:32.258Z,40.52
2022-08-21T21:25:04.954Z,40.64
2022-08-21T21:27:43.267Z,40.02
2022-08-21T21:30:27.791Z,42.02
2022-08-21T21:32:55.849Z,42.85
2022-08-21T21:35:36.588Z,43.43
2022-08-21T21:38:23.699Z,43.42
2022-08-21T21:41:16.085Z,43.06
2022-08-21T21:43:53.725Z,43.95
2022-08-21T21:46:38.417Z,42.55
2022-08-21T21:49:24.460Z,42.86
2022-08-21T21:52:27.554Z,42.15
2022-08-21T21:55:28.192Z,42.73
2022-08-21T21:58:10.639Z,42.14
2022-08-21T22:00:52.011Z,41.97
2022-08-21T22:03:28.154Z,43.01
2022-08-21T22:06:04.510Z,42.70
2022-08-21T22:08:48.878Z,43.92
2022-08-21T22:11:36.763Z,43.40
2022-08-21T22:14:13.377Z,43.59
2022-08-21T22:16:42.960Z,43.92
2022-08-21T22:19:16.774Z,44.27
2022-08-21T22:22:15.679Z,43.39
2022-08-21T22:24:48.976Z,43.01
2022-08-21T22:27:21.851Z,42.25
2022-08-21T22:29:56.199Z,42.20
2022-08-21T22:32:38.491Z,42.60
2022-08-21T22:35:18.353Z,42.65
2022-08-21T22:37:49.580Z,43.12
2022-08-21T22:40:22.344Z,44.12
2022-08-21T22:43:01.117Z,43.78
2022-08-21T22:45:58.721Z,45.70
2022-08-21T22:48:30.501Z,44.10
2022-08-21T22:51:30.096Z,44.28
2022-08-21T22:54:00.495Z,46.34
2022-08-21T22:56:35.068Z,44.67
2022-08-21T22:59:06.098Z,44.95
2022-08-21T23:01:43.076Z,48.21
2022-08-21T23:04:21.586Z,45.37
2022-08-21T23:06:58.235Z,45.06
2022-08-21T23:09:27.065Z,44.73
2022-08-21T23:11:57.895Z,44.74
2022-08-21T23:14:27.156Z,46.67
2022-08-21T23:17:01.587Z,45.38
2022-08-21T23:20:28.527Z,46.23
2022-08-21T23:23:17.792Z,44.16
2022-08-21T23:25:54.580Z,43.33
2022-08-21T23:28:37.793Z,44.45
2022-08-21T23:31:25.246Z,44.48
2022-08-21T23:34:26.456Z,43.40
2022-08-21T23:37:48.709Z,43.16
2022-08-21T23:43:50.423Z,43.88
2022-08-21T23:46:33.410Z,44.24
2022-08-21T23:49:17.526Z,45.29
2022-08-21T23:52:01.499Z,45.58
2022-08-21T23:54:55.556Z,46.00
2022-08-21T23:58:06.980Z,44.29
